M I D A S
Marine Information and Data Acquisition System
Tripno 216 of the Zeeleeuw from 2002-02-13 08:35:00 to 2002-02-13 15:01:13
Back to CruiseResearch ActivitiesStationsMapUnderway DataData graphs

EquipmentUnitsComment
TimeDGPSUTC
LatitudeDGPSDM.mWGS84
LongitudeDGPSDM.mWGS84
TemperatureSBE03/SBE38deg celciusITS90
ConductivitySBE21S/mITS90
SalinitySBE21 Practical Salinity Units
ChlorophylAChelsea fluorimeterg/lCalibrated in Aceton
Missing or incorrect values are displayed as -999
Sea surface data collected by the RV Zeeleeuw from 2002-02-13 08:35:00 to 2002-02-13 15:01:13
                                                                                    Next 1000 lines
Time Latitude Longitude Temperature Conductivity Salinity ChlorophylA
2002-02-13 10:03:46 51°8.332 2°33.993 9.327951 3.555802 32.675344  
2002-02-13 10:03:50 51°8.332 2°33.994 9.326814 3.555401 32.669765  
2002-02-13 10:03:54 51°8.332 2°33.995 9.327904 3.5549 32.665392  
2002-02-13 10:04:00 51°8.333 2°33.997 9.368835 3.556002 32.675904  
2002-02-13 10:04:05 51°8.333 2°33.998 9.368835 3.556002 32.675904  
2002-02-13 10:04:09 51°8.334 2°33.999 9.371771 3.556503 32.682507  
2002-02-13 10:04:14 51°8.334 2°34.001 9.337713 3.557305 32.692924  
2002-02-13 10:04:20 51°8.334 2°34.002 9.342972 3.559008 32.714787  
2002-02-13 10:04:24 51°8.335 2°34.003 9.388202 3.559309 32.719347  
2002-02-13 10:04:30 51°8.335 2°34.004 9.33667 3.558908 32.715253  
2002-02-13 10:04:36 51°8.336 2°34.006 9.33667 3.558908 32.715253  
2002-02-13 10:04:40 51°8.336 2°34.007 9.321317 3.559108 32.7173  
2002-02-13 10:04:45 51°8.337 2°34.008 9.348752 3.558307 32.707623  
2002-02-13 10:04:50 51°8.337 2°34.009 9.304727 3.556704 32.690503  
2002-02-13 10:04:55 51°8.338 2°34.01 9.305153 3.556503 32.684737  
2002-02-13 10:05:00 51°8.339 2°34.011 9.298896 3.556904 32.685856  
2002-02-13 10:05:05 51°8.34 2°34.011 9.298896 3.556904 32.685856  
2002-02-13 10:05:10 51°8.34 2°34.012 9.294913 3.559208 32.708648  
2002-02-13 10:05:15 51°8.342 2°34.013 9.291452 3.562114 32.74503  
2002-02-13 10:05:20 51°8.344 2°34.014 9.290598 3.564218 32.777716  
2002-02-13 10:05:25 51°8.347 2°34.015 9.291973 3.566222 32.80492  
2002-02-13 10:05:30 51°8.351 2°34.014 9.296904 3.566823 32.813308  
2002-02-13 10:05:34 51°8.355 2°34.014 9.296904 3.566823 32.813308  
2002-02-13 10:05:40 51°8.361 2°34.011 9.302973 3.567625 32.824494  
2002-02-13 10:05:45 51°8.367 2°34.009 9.301171 3.568827 32.84053  
2002-02-13 10:05:50 51°8.373 2°34.006 9.297568 3.569529 32.852941  
2002-02-13 10:05:53 51°8.378 2°34.004 9.344393 3.569529 32.85369  
2002-02-13 10:05:59 51°8.388 2°34.002 9.352541 3.569028 32.852306  
2002-02-13 10:06:05 51°8.401 2°34 9.352541 3.569028 32.852306  
2002-02-13 10:06:09 51°8.411 2°33.999 9.316861 3.567926 32.838786  
2002-02-13 10:06:15 51°8.427 2°33.998 9.318425 3.566723 32.824242  
2002-02-13 10:06:19 51°8.438 2°33.998 9.311174 3.565922 32.812306  
2002-02-13 10:06:24 51°8.452 2°33.997 9.353299 3.566623 32.819479  
2002-02-13 10:06:29 51°8.468 2°33.995 9.31307 3.566423 32.81444  
2002-02-13 10:06:34 51°8.484 2°33.992 9.31307 3.566423 32.81444  
2002-02-13 10:06:40 51°8.503 2°33.987 9.325914 3.564218 32.788165  
2002-02-13 10:06:45 51°8.52 2°33.983 9.329326 3.562515 32.767019  
2002-02-13 10:06:50 51°8.536 2°33.978 9.323402 3.562515 32.767019  
2002-02-13 10:06:55 51°8.553 2°33.971 9.315629 3.564118 32.781915  
2002-02-13 10:07:00 51°8.569 2°33.962 9.31544 3.56522 32.793929  
2002-02-13 10:07:05 51°8.586 2°33.95 9.31544 3.56522 32.793929  
2002-02-13 10:07:10 51°8.601 2°33.938 9.317857 3.566222 32.803426  
2002-02-13 10:07:15 51°8.618 2°33.926 9.319184 3.564819 32.784607  
2002-02-13 10:07:20 51°8.634 2°33.914 9.312216 3.563717 32.770358  
2002-02-13 10:07:25 51°8.651 2°33.904 9.302025 3.56492 32.7819  
2002-02-13 10:07:30 51°8.668 2°33.896 9.295719 3.566823 32.802851  
2002-02-13 10:07:35 51°8.686 2°33.89 9.295719 3.566823 32.802851  
2002-02-13 10:07:40 51°8.703 2°33.886 9.288085 3.568627 32.824276  
2002-02-13 10:07:44 51°8.717 2°33.883 9.27936 3.568727 32.826795  
2002-02-13 10:07:58 51°8.763 2°33.876 9.259154 3.57003 32.838618  
2002-02-13 10:08:02 51°8.776 2°33.875 9.251136 3.572434 32.868444  
2002-02-13 10:08:08 51°8.796 2°33.874 9.243308 3.574138 32.88886  
2002-02-13 10:08:13 51°8.812 2°33.874 9.274617 3.575941 32.914804  
2002-02-13 10:08:17 51°8.825 2°33.874 9.229973 3.578146 32.943363  
2002-02-13 10:08:23 51°8.845 2°33.875 9.229973 3.578146 32.943363  
2002-02-13 10:08:28 51°8.86 2°33.877 9.228786 3.58045 32.972209  
2002-02-13 10:08:33 51°8.874 2°33.879 9.226271 3.581753 32.995319  
2002-02-13 10:08:38 51°8.888 2°33.881 9.224989 3.582655 33.012832  
2002-02-13 10:08:42 51°8.897 2°33.884 9.223138 3.584158 33.036516  
2002-02-13 10:08:47 51°8.908 2°33.887 9.29809 3.584258 33.047341  
2002-02-13 10:08:53 51°8.921 2°33.89 9.29809 3.584258 33.047341  
2002-02-13 10:08:58 51°8.931 2°33.893 9.217442 3.58506 33.057066  
2002-02-13 10:09:02 51°8.938 2°33.896 9.215021 3.58526 33.065156  
2002-02-13 10:09:08 51°8.948 2°33.9 9.211888 3.585862 33.07434  
2002-02-13 10:09:12 51°8.954 2°33.904 9.209372 3.586262 33.082225  
2002-02-13 10:09:17 51°8.961 2°33.907 9.245016 3.586062 33.082435  
2002-02-13 10:09:22 51°8.968 2°33.912 9.245016 3.586062 33.082435  
2002-02-13 10:09:28 51°8.975 2°33.916 9.203485 3.586563 33.088329  
2002-02-13 10:09:33 51°8.98 2°33.92 9.20168 3.587064 33.095735  
2002-02-13 10:09:38 51°8.983 2°33.923 9.200541 3.587264 33.101569  
2002-02-13 10:09:44 51°8.985 2°33.926 9.237234 3.584359 33.074025  
2002-02-13 10:09:48 51°8.986 2°33.927 9.196932 3.587565 33.109945  
2002-02-13 10:09:54 51°8.986 2°33.927 9.196932 3.587565 33.109945  
2002-02-13 10:09:58 51°8.986 2°33.927 9.196362 3.587465 33.111942  
2002-02-13 10:10:03 51°8.986 2°33.928 9.274949 3.588066 33.120381  
2002-02-13 10:10:08 51°8.986 2°33.929 9.19584 3.584259 33.082818  
2002-02-13 10:10:13 51°8.986 2°33.931 9.195223 3.588768 33.131363  
2002-02-13 10:10:18 51°8.986 2°33.934 9.270681 3.587866 33.124377  
2002-02-13 10:10:22 51°8.986 2°33.936 9.270681 3.587866 33.124377  
2002-02-13 10:10:27 51°8.986 2°33.938 9.193181 3.588166 33.129733  
2002-02-13 10:10:33 51°8.985 2°33.941 9.192231 3.588267 33.130005  
2002-02-13 10:10:38 51°8.985 2°33.943 9.318568 3.587565 33.124318  
2002-02-13 10:10:42 51°8.985 2°33.945 9.205621 3.587465 33.124047  
2002-02-13 10:10:48 51°8.984 2°33.948 9.197787 3.586864 33.120145  
2002-02-13 10:10:53 51°8.984 2°33.95 9.197787 3.586864 33.120145  
2002-02-13 10:10:58 51°8.983 2°33.952 9.232203 3.586964 33.121174  
2002-02-13 10:11:03 51°8.982 2°33.954 9.191091 3.587465 33.128589  
2002-02-13 10:11:08 51°8.982 2°33.956 9.188954 3.587064 33.12523  
2002-02-13 10:11:12 51°8.982 2°33.958 9.187339 3.587365 33.126803  
2002-02-13 10:11:18 51°8.981 2°33.96 9.18715 3.588167 33.132004  
2002-02-13 10:11:22 51°8.98 2°33.962 9.18715 3.588167 33.132004  
2002-02-13 10:11:28 51°8.98 2°33.965 9.278459 3.587265 33.123503  
2002-02-13 10:11:32 51°8.98 2°33.966 9.247151 3.587766 33.129404  
2002-02-13 10:11:38 51°8.979 2°33.969 9.207378 3.587866 33.131947  
2002-02-13 10:11:42 51°8.979 2°33.97 9.246629 3.587766 33.134704  
2002-02-13 10:11:47 51°8.978 2°33.972 9.216018 3.587766 33.135461  
2002-02-13 10:11:53 51°8.978 2°33.975 9.216018 3.587766 33.135461  
2002-02-13 10:11:58 51°8.977 2°33.977 9.217205 3.587565 33.134161  
2002-02-13 10:12:03 51°8.977 2°33.979 9.219388 3.587666 33.132918  
2002-02-13 10:12:08 51°8.977 2°33.981 9.300365 3.588768 33.136662  
2002-02-13 10:12:13 51°8.976 2°33.983 9.228122 3.588066 33.127948  
2002-02-13 10:12:17 51°8.976 2°33.985 9.306433 3.588968 33.134934  
2002-02-13 10:12:22 51°8.976 2°33.987 9.306433 3.588968 33.134934  
2002-02-13 10:12:27 51°8.976 2°33.989 9.229403 3.588868 33.130121  
2002-02-13 10:12:33 51°8.975 2°33.992 9.226271 3.589068 33.128394  
2002-02-13 10:12:38 51°8.975 2°33.994 9.229356 3.589068 33.126881  
2002-02-13 10:12:43 51°8.974 2°33.996 9.225986 3.59007 33.134137  
2002-02-13 10:12:48 51°8.974 2°33.998 9.257968 3.590371 33.134952  
2002-02-13 10:12:54 51°8.974 2°34 9.257968 3.590371 33.134952  
2002-02-13 10:12:58 51°8.973 2°34.001 9.213787 3.589469 33.123429  
2002-02-13 10:13:04 51°8.973 2°34.004 9.216208 3.589769 33.125001  
2002-02-13 10:13:08 51°8.973 2°34.005 9.225511 3.58987 33.125273  
2002-02-13 10:13:14 51°8.972 2°34.007 9.265653 3.590471 33.130684  
2002-02-13 10:13:18 51°8.972 2°34.008 9.263661 3.59007 33.127329  
2002-02-13 10:13:23 51°8.972 2°34.01 9.263661 3.59007 33.127329  
2002-02-13 10:13:28 51°8.971 2°34.012 9.30193 3.59007 33.128085  
2002-02-13 10:13:33 51°8.971 2°34.014 9.295719 3.589469 33.126455  
2002-02-13 10:13:37 51°8.971 2°34.015 9.302309 3.589469 33.129481  
2002-02-13 10:13:43 51°8.97 2°34.017 9.227695 3.589369 33.126183  
2002-02-13 10:13:48 51°8.97 2°34.018 9.271961 3.589469 33.124942  
2002-02-13 10:13:52 51°8.97 2°34.02 9.271961 3.589469 33.124942  
2002-02-13 10:13:57 51°8.97 2°34.021 9.305011 3.589569 33.125214  
2002-02-13 10:14:02 51°8.969 2°34.023 9.258443 3.589268 33.12213  
2002-02-13 10:14:08 51°8.968 2°34.025 9.252038 3.58987 33.128298  
2002-02-13 10:14:12 51°8.968 2°34.026 9.209324 3.59017 33.132139  
2002-02-13 10:14:18 51°8.968 2°34.027 9.217537 3.589769 33.125757  
2002-02-13 10:14:23 51°8.967 2°34.029 9.217537 3.589769 33.125757  
2002-02-13 10:14:28 51°8.967 2°34.03 9.222426 3.58997 33.124788  
2002-02-13 10:14:33 51°8.967 2°34.032 9.340129 3.589769 33.123488  
2002-02-13 10:14:38 51°8.966 2°34.033 9.216303 3.59007 33.128841  
2002-02-13 10:14:42 51°8.966 2°34.034 9.221999 3.590571 33.137008  
2002-02-13 10:14:48 51°8.965 2°34.036 9.307334 3.589268 33.127424  
2002-02-13 10:14:52 51°8.965 2°34.037 9.307334 3.589268 33.127424  
2002-02-13 10:14:58 51°8.964 2°34.038 9.267218 3.589268 33.126668  
2002-02-13 10:15:02 51°8.964 2°34.039 9.219008 3.589168 33.124127  
2002-02-13 10:15:08 51°8.963 2°34.041 9.295198 3.588667 33.11823  
2002-02-13 10:15:14 51°8.963 2°34.042 9.254173 3.589168 33.124127  
2002-02-13 10:15:18 51°8.962 2°34.043 9.212458 3.588868 33.11953  
2002-02-13 10:15:22 51°8.962 2°34.044 9.212458 3.588868 33.11953  
2002-02-13 10:15:27 51°8.962 2°34.046 9.289366 3.59027 33.130898  
2002-02-13 10:15:32 51°8.961 2°34.047 9.284339 3.590371 33.131169  
2002-02-13 10:15:37 51°8.961 2°34.048 9.208802 3.590371 33.133439  
2002-02-13 10:15:42 51°8.96 2°34.05 9.255881 3.588968 33.119802  
2002-02-13 10:15:48 51°8.961 2°34.054 9.221334 3.589769 33.130296  
2002-02-13 10:15:52 51°8.961 2°34.058 9.221334 3.589769 33.130296  
2002-02-13 10:15:58 51°8.962 2°34.066 9.233864 3.588868 33.124825  
2002-02-13 10:16:04 51°8.965 2°34.077 9.360073 3.589068 33.126881  
2002-02-13 10:16:08 51°8.968 2°34.084 9.272341 3.589269 33.131208  
2002-02-13 10:16:14 51°8.973 2°34.096 9.226888 3.588968 33.128879  
2002-02-13 10:16:18 51°8.978 2°34.104 9.224799 3.588868 33.127094  
2002-02-13 10:16:24 51°8.986 2°34.116 9.224799 3.588868 33.127094  
2002-02-13 10:16:28 51°8.993 2°34.122 9.224277 3.588968 33.12434  
2002-02-13 10:16:32 51°9 2°34.129 9.259866 3.590371 33.131926  
2002-02-13 10:16:38 51°9.011 2°34.136 9.257304 3.589669 33.120192  
2002-02-13 10:16:42 51°9.02 2°34.14 9.215781 3.590471 33.126903  
2002-02-13 10:16:48 51°9.033 2°34.142 9.211318 3.590671 33.130471  
2002-02-13 10:16:52 51°9.042 2°34.143 9.211318 3.590671 33.130471  
2002-02-13 10:16:58 51°9.056 2°34.141 9.206618 3.59027 33.127872  
2002-02-13 10:17:02 51°9.065 2°34.138 9.204102 3.589469 33.123429  
2002-02-13 10:17:08 51°9.079 2°34.131 9.201965 3.59007 33.130354  
2002-02-13 10:17:13 51°9.09 2°34.122 9.195935 3.589569 33.12824  
2002-02-13 10:17:17 51°9.099 2°34.114 9.190141 3.589569 33.129753  
2002-02-13 10:17:22 51°9.109 2°34.103 9.190141 3.589569 33.129753  
2002-02-13 10:17:28 51°9.12 2°34.086 9.183018 3.589168 33.130179  
2002-02-13 10:17:32 51°9.127 2°34.073 9.215353 3.588768 33.128336  
2002-02-13 10:17:38 51°9.135 2°34.052 9.175038 3.589168 33.13472  
2002-02-13 10:17:42 51°9.14 2°34.037 9.210369 3.588868 33.133149  
2002-02-13 10:17:48 51°9.146 2°34.013 9.167343 3.588668 33.137148  
2002-02-13 10:17:52 51°9.149 2°33.996 9.167343 3.588668 33.137148  
2002-02-13 10:17:58 51°9.151 2°33.97 9.165347 3.588768 33.141206  
2002-02-13 10:18:02 51°9.152 2°33.953 9.160074 3.588868 33.148295  
2002-02-13 10:18:08 51°9.15 2°33.927 9.192753 3.588668 33.150783  
2002-02-13 10:18:12 51°9.148 2°33.909 9.18278 3.588868 33.157389  
2002-02-13 10:18:18 51°9.143 2°33.884 9.174468 3.587966 33.151158  
2002-02-13 10:18:22 51°9.139 2°33.867 9.174468 3.587966 33.151158  
2002-02-13 10:18:26 51°9.134 2°33.851 9.165775 3.588267 33.15652  
2002-02-13 10:18:32 51°9.126 2°33.827 9.116872 3.588067 33.158253  
2002-02-13 10:18:38 51°9.116 2°33.803 9.148385 3.588067 33.161286  
2002-02-13 10:18:42 51°9.11 2°33.787 9.110025 3.588868 33.173318  
2002-02-13 10:18:47 51°9.102 2°33.766 9.100277 3.587766 33.16806  
2002-02-13 10:18:53 51°9.092 2°33.742 9.100277 3.587766 33.16806  
2002-02-13 10:18:58 51°9.084 2°33.722 9.094951 3.587566 33.170554  
2002-02-13 10:19:03 51°9.075 2°33.701 9.128614 3.587466 33.179395  
2002-02-13 10:19:08 51°9.067 2°33.681 9.08891 3.586163 33.174355  
2002-02-13 10:19:12 51°9.061 2°33.664 9.091241 3.585763 33.17707  
2002-02-13 10:19:18 51°9.05 2°33.639 9.127568 3.585462 33.177017  
2002-02-13 10:19:22 51°9.044 2°33.623 9.127568 3.585462 33.177017  
2002-02-13 10:19:28 51°9.033 2°33.598 9.084392 3.585162 33.180005  
2002-02-13 10:19:32 51°9.027 2°33.58 9.126475 3.58436 33.177077  
2002-02-13 10:19:37 51°9.019 2°33.559 9.128043 3.584561 33.182941  
2002-02-13 10:19:44 51°9.009 2°33.528 9.087483 3.584861 33.19136  
2002-02-13 10:19:48 51°9.003 2°33.511 9.089338 3.58426 33.185932  
2002-02-13 10:19:52 51°8.998 2°33.493 9.089338 3.58426 33.185932  
2002-02-13 10:19:58 51°8.989 2°33.467 9.125429 3.58406 33.186151  
2002-02-13 10:20:02 51°8.983 2°33.449 9.129469 3.583559 33.181754  
2002-02-13 10:20:08 51°8.974 2°33.423 9.092097 3.583358 33.179691  
2002-02-13 10:20:12 51°8.968 2°33.405 9.093143 3.583659 33.182786  
2002-02-13 10:20:18 51°8.958 2°33.379 9.093666 3.583458 33.181483  
2002-02-13 10:20:22 51°8.952 2°33.362 9.093666 3.583458 33.181483  
2002-02-13 10:20:28 51°8.942 2°33.336 9.132844 3.583559 33.181754  
2002-02-13 10:20:32 51°8.935 2°33.32 9.092145 3.583859 33.18561  
2002-02-13 10:20:38 51°8.925 2°33.294 9.091574 3.583659 33.182786  
2002-02-13 10:20:42 51°8.919 2°33.278 9.091288 3.583258 33.17866  
2002-02-13 10:20:49 51°8.908 2°33.247 9.12676 3.583258 33.177899  
2002-02-13 10:20:54 51°8.9 2°33.226 9.12676 3.583258 33.177899  
2002-02-13 10:20:59 51°8.892 2°33.204 9.088625 3.583358 33.177409  
2002-02-13 10:21:02 51°8.887 2°33.191 9.205241 3.583559 33.180233  
2002-02-13 10:21:09 51°8.876 2°33.161 9.124906 3.583458 33.179201  
2002-02-13 10:21:13 51°8.869 2°33.144 9.084487 3.583559 33.180233  
2002-02-13 10:21:18 51°8.862 2°33.123 9.121388 3.583358 33.177409  
2002-02-13 10:21:23 51°8.854 2°33.101 9.121388 3.583358 33.177409  
2002-02-13 10:21:26 51°8.85 2°33.088 9.123147 3.582657 33.173231  
2002-02-13 10:21:33 51°8.838 2°33.058 9.086342 3.583258 33.180181  
2002-02-13 10:21:38 51°8.831 2°33.037 9.090242 3.583158 33.179149  
2002-02-13 10:21:42 51°8.825 2°33.019 9.168958 3.582957 33.177086  
2002-02-13 10:21:49 51°8.815 2°32.989 9.095521 3.583158 33.181432  
2002-02-13 10:21:54 51°8.808 2°32.967 9.095521 3.583158 33.181432  
2002-02-13 10:21:59 51°8.8 2°32.945 9.092858 3.583058 33.1804  
2002-02-13 10:22:03 51°8.794 2°32.928 9.131418 3.583058 33.182682  
2002-02-13 10:22:09 51°8.785 2°32.902 9.095474 3.582557 33.176763  
2002-02-13 10:22:14 51°8.778 2°32.88 9.093571 3.582657 33.175513  
2002-02-13 10:22:19 51°8.771 2°32.858 9.131466 3.583058 33.178118  
2002-02-13 10:22:23 51°8.765 2°32.841 9.131466 3.583058 33.178118  
2002-02-13 10:22:28 51°8.758 2°32.819 9.130848 3.583058 33.175076  
2002-02-13 10:22:34 51°8.749 2°32.793 9.088102 3.583358 33.179691  
2002-02-13 10:22:39 51°8.742 2°32.771 9.08325 3.583358 33.178931  
2002-02-13 10:22:42 51°8.737 2°32.758 9.078208 3.583058 33.175836  
2002-02-13 10:22:49 51°8.728 2°32.727 9.076733 3.582957 33.173284  
2002-02-13 10:22:54 51°8.721 2°32.704 9.076733 3.582957 33.173284  
2002-02-13 10:22:59 51°8.715 2°32.682 9.190379 3.582757 33.173502  
2002-02-13 10:23:04 51°8.709 2°32.659 9.072879 3.583158 33.176107  
2002-02-13 10:23:09 51°8.703 2°32.636 9.111404 3.582857 33.176055  
2002-02-13 10:23:14 51°8.698 2°32.613 9.150191 3.582757 33.177305  
2002-02-13 10:23:19 51°8.693 2°32.59 9.072689 3.582356 33.176982  
2002-02-13 10:23:24 51°8.688 2°32.567 9.072689 3.582356 33.176982  
2002-02-13 10:23:29 51°8.683 2°32.543 9.073545 3.582156 33.174918  
2002-02-13 10:23:33 51°8.678 2°32.525 9.11207 3.582256 33.179754  
2002-02-13 10:23:38 51°8.673 2°32.502 9.074973 3.581956 33.178942  
2002-02-13 10:23:42 51°8.669 2°32.484 9.118108 3.581455 33.175304  
2002-02-13 10:23:48 51°8.662 2°32.457 9.0813 3.581455 33.174543  
2002-02-13 10:23:54 51°8.655 2°32.43 9.0813 3.581455 33.174543  
2002-02-13 10:23:58 51°8.649 2°32.412 9.121103 3.581154 33.174491  
2002-02-13 10:24:02 51°8.645 2°32.395 9.084344 3.581154 33.17373  
2002-02-13 10:24:09 51°8.636 2°32.364 9.08482 3.581154 33.171447  
2002-02-13 10:24:14 51°8.629 2°32.341 9.086199 3.580653 33.167049  
2002-02-13 10:24:19 51°8.623 2°32.319 9.086817 3.581054 33.170416  
2002-02-13 10:24:23 51°8.618 2°32.301 9.086817 3.581054 33.170416  
2002-02-13 10:24:29 51°8.61 2°32.275 9.124621 3.580854 33.167591  
2002-02-13 10:24:34 51°8.604 2°32.253 9.086199 3.580853 33.163028  
2002-02-13 10:24:39 51°8.597 2°32.231 9.087103 3.581154 33.166123  
2002-02-13 10:24:43 51°8.592 2°32.213 9.088768 3.581254 33.164112  
2002-02-13 10:24:49 51°8.584 2°32.187 9.128851 3.581254 33.164112  
2002-02-13 10:24:53 51°8.579 2°32.17 9.128851 3.581254 33.164112  
2002-02-13 10:24:58 51°8.572 2°32.148 9.130515 3.581154 33.16232  
2002-02-13 10:25:02 51°8.567 2°32.131 9.131561 3.581154 33.16232  
2002-02-13 10:25:09 51°8.557 2°32.1 9.097424 3.581655 33.167478  
2002-02-13 10:25:13 51°8.551 2°32.083 9.100277 3.581154 33.16156  
2002-02-13 10:25:18 51°8.544 2°32.062 9.18126 3.580853 33.158465  
2002-02-13 10:25:24 51°8.535 2°32.036 9.18126 3.580853 33.158465  
2002-02-13 10:25:29 51°8.528 2°32.015 9.104462 3.580954 33.157976  
2002-02-13 10:25:33 51°8.522 2°31.997 9.104462 3.580853 33.154665  
2002-02-13 10:25:38 51°8.514 2°31.977 9.145866 3.580252 33.148476  
2002-02-13 10:25:44 51°8.504 2°31.952 9.110215 3.580553 33.15005  
2002-02-13 10:25:49 51°8.496 2°31.932 9.11226 3.580553 33.14929  
2002-02-13 10:25:54 51°8.487 2°31.912 9.11226 3.580553 33.14929  
2002-02-13 10:25:59 51°8.478 2°31.892 9.192088 3.580653 33.145003  
2002-02-13 10:26:04 51°8.47 2°31.872 9.113163 3.580553 33.142453  
2002-02-13 10:26:09 51°8.463 2°31.85 9.192801 3.580753 33.142996  
2002-02-13 10:26:13 51°8.457 2°31.833 9.11554 3.580753 33.142996  
2002-02-13 10:26:18 51°8.45 2°31.811 9.114922 3.580553 33.138656  
2002-02-13 10:26:24 51°8.443 2°31.785 9.114922 3.580553 33.138656  
2002-02-13 10:26:29 51°8.438 2°31.762 9.115588 3.580653 33.137409  
2002-02-13 10:26:34 51°8.432 2°31.739 9.115826 3.580853 33.137193  
2002-02-13 10:26:39 51°8.427 2°31.716 9.157223 3.580553 33.132582  
2002-02-13 10:26:43 51°8.423 2°31.698 9.11787 3.580653 33.133613  
2002-02-13 10:26:48 51°8.418 2°31.675 9.156605 3.580753 33.132366  
2002-02-13 10:26:53 51°8.414 2°31.652 9.156605 3.580753 33.132366  
2002-02-13 10:26:58 51°8.409 2°31.629 9.120627 3.580853 33.133397  
2002-02-13 10:27:02 51°8.405 2°31.611 9.122814 3.580953 33.13291  
2002-02-13 10:27:08 51°8.399 2°31.583 9.164872 3.580753 33.132366  
2002-02-13 10:27:12 51°8.395 2°31.565 9.16777 3.580452 33.12548  
2002-02-13 10:27:18 51°8.388 2°31.539 9.209514 3.580853 33.131879  
2002-02-13 10:27:22 51°8.383 2°31.521 9.209514 3.580853 33.131879  
2002-02-13 10:27:28 51°8.375 2°31.495 9.171523 3.580853 33.13112  
2002-02-13 10:27:33 51°8.367 2°31.474 9.173756 3.580653 33.1283  
2002-02-13 10:27:38 51°8.36 2°31.453 9.135743 3.580252 33.121901  
2002-02-13 10:27:42 51°8.353 2°31.437 9.137312 3.580252 33.121143  
2002-02-13 10:27:48 51°8.344 2°31.412 9.137597 3.580152 33.118595  
2002-02-13 10:27:52 51°8.338 2°31.395 9.137597 3.580152 33.118595  
2002-02-13 10:27:58 51°8.33 2°31.369 9.177603 3.580352 33.118381  
2002-02-13 10:28:02 51°8.325 2°31.351 9.138215 3.580152 33.113287  
2002-02-13 10:28:08 51°8.319 2°31.326 9.13907 3.580051 33.11074  
2002-02-13 10:28:12 51°8.315 2°31.31 9.138167 3.580252 33.112042  
2002-02-13 10:28:18 51°8.31 2°31.287 9.216065 3.580452 33.11107  
2002-02-13 10:28:22 51°8.307 2°31.274 9.216065 3.580452 33.11107  
2002-02-13 10:28:28 51°8.303 2°31.256 9.211413 3.580753 33.111887  
2002-02-13 10:28:32 51°8.301 2°31.246 9.118631 3.580352 33.107766  
2002-02-13 10:28:38 51°8.296 2°31.234 9.09614 3.580452 33.108796  
2002-02-13 10:28:42 51°8.293 2°31.228 9.087246 3.580252 33.10522  
2002-02-13 10:28:48 51°8.289 2°31.221 9.082727 3.580953 33.111673  
2002-02-13 10:28:53 51°8.285 2°31.217 9.082727 3.580953 33.111673  
2002-02-13 10:28:58 51°8.282 2°31.214 9.113686 3.580953 33.113189  
2002-02-13 10:29:02 51°8.28 2°31.212 9.147767 3.581153 33.117523  
2002-02-13 10:29:08 51°8.277 2°31.21 9.065552 3.581755 33.132048  
2002-02-13 10:29:12 51°8.276 2°31.21 9.062507 3.582256 33.148588  
2002-02-13 10:29:18 51°8.275 2°31.21 9.06008 3.582957 33.165681  
2002-02-13 10:29:22 51°8.275 2°31.21 9.06008 3.582957 33.165681  
2002-02-13 10:29:28 51°8.274 2°31.21 9.059033 3.583158 33.176107  
2002-02-13 10:29:32 51°8.273 2°31.21 9.175608 3.583258 33.183224  
2002-02-13 10:29:38 51°8.271 2°31.21 9.056226 3.583459 33.192898  
2002-02-13 10:29:42 51°8.27 2°31.211 9.134127 3.583158 33.19437  
2002-02-13 10:29:48 51°8.266 2°31.212 9.055369 3.583359 33.19948  
2002-02-13 10:29:52 51°8.263 2°31.214 9.055369 3.583359 33.19948  
2002-02-13 10:29:58 51°8.258 2°31.217 9.056036 3.583158 33.201224  
2002-02-13 10:30:02 51°8.255 2°31.221 9.056273 3.582858 33.201936  
2002-02-13 10:30:09 51°8.249 2°31.228 9.094855 3.583058 33.204763  
2002-02-13 10:30:13 51°8.246 2°31.233 9.056607 3.583359 33.210146  
2002-02-13 10:30:18 51°8.242 2°31.241 9.070405 3.583258 33.209876  
2002-02-13 10:30:22 51°8.239 2°31.247 9.070405 3.583258 33.209876  
2002-02-13 10:30:28 51°8.237 2°31.259 9.080158 3.582858 33.208032  
2002-02-13 10:30:32 51°8.235 2°31.267 9.088244 3.582657 33.205967  
2002-02-13 10:30:38 51°8.235 2°31.279 9.101846 3.582357 33.204393  
2002-02-13 10:30:42 51°8.235 2°31.287 9.114827 3.582557 33.205696  
2002-02-13 10:30:48 51°8.237 2°31.3 9.125857 3.582657 33.205205  
2002-02-13 10:30:53 51°8.24 2°31.309 9.125857 3.582657 33.205205  
2002-02-13 10:30:58 51°8.243 2°31.318 9.132274 3.581655 33.191071  
2002-02-13 10:31:02 51°8.247 2°31.325 9.13793 3.581355 33.181883  
2002-02-13 10:31:09 51°8.254 2°31.335 9.139165 3.581455 33.176826  
2002-02-13 10:31:14 51°8.26 2°31.34 9.141779 3.580553 33.158412  
2002-02-13 10:31:18 51°8.265 2°31.343 9.182068 3.580252 33.145437  
2002-02-13 10:31:22 51°8.271 2°31.345 9.182068 3.580252 33.145437  
2002-02-13 10:31:29 51°8.281 2°31.346 9.144298 3.57935 33.125525  
2002-02-13 10:31:33 51°8.286 2°31.344 9.144536 3.579551 33.121515  
2002-02-13 10:31:38 51°8.293 2°31.342 9.144916 3.578949 33.10623  
2002-02-13 10:31:42 51°8.299 2°31.338 9.222711 3.57925 33.10553  
2002-02-13 10:31:49 51°8.307 2°31.329 9.144773 3.57925 33.10174  
2002-02-13 10:31:54 51°8.313 2°31.321 9.144773 3.57925 33.10174  
2002-02-13 10:31:58 51°8.317 2°31.313 9.143918 3.57945 33.101527  
2002-02-13 10:32:04 51°8.323 2°31.302 9.143728 3.579751 33.102343  
2002-02-13 10:32:08 51°8.327 2°31.295 9.143443 3.579851 33.101858  
2002-02-13 10:32:13 51°8.331 2°31.287 9.133319 3.57935 33.096708  
2002-02-13 10:32:18 51°8.335 2°31.28 9.130895 3.57935 33.095193  
2002-02-13 10:32:22 51°8.338 2°31.275 9.130895 3.57935 33.095193  
2002-02-13 10:32:28 51°8.342 2°31.27 9.106364 3.57955 33.097253  
2002-02-13 10:32:33 51°8.345 2°31.267 9.093286 3.580151 33.101917  
2002-02-13 10:32:38 51°8.347 2°31.266 9.278222 3.579951 33.099857  
2002-02-13 10:32:43 51°8.349 2°31.265 9.077732 3.580753 33.106581  
2002-02-13 10:32:49 51°8.349 2°31.265 9.192611 3.581254 33.114763  
2002-02-13 10:32:53 51°8.349 2°31.265 9.192611 3.581254 33.114763  
2002-02-13 10:32:58 51°8.349 2°31.265 9.069406 3.581654 33.121916  
2002-02-13 10:33:03 51°8.349 2°31.266 9.065695 3.582556 33.140292  
2002-02-13 10:33:09 51°8.349 2°31.266 9.062888 3.583458 33.160198  
2002-02-13 10:33:14 51°8.349 2°31.267 9.061413 3.583759 33.173171  
2002-02-13 10:33:18 51°8.349 2°31.268 9.098327 3.58426 33.185932  
2002-02-13 10:33:22 51°8.349 2°31.268 9.098327 3.58426 33.185932  
2002-02-13 10:33:29 51°8.35 2°31.269 9.05851 3.58416 33.191748  
2002-02-13 10:33:34 51°8.35 2°31.27 9.056511 3.584962 33.20457  
2002-02-13 10:33:38 51°8.35 2°31.27 9.055084 3.583859 33.19931  
2002-02-13 10:33:42 51°8.35 2°31.271 9.053133 3.58426 33.207246  
2002-02-13 10:33:48 51°8.35 2°31.272 9.051753 3.583659 33.2041  
2002-02-13 10:33:54 51°8.351 2°31.273 9.051753 3.583659 33.2041  
2002-02-13 10:33:59 51°8.351 2°31.274 9.051134 3.583058 33.200953  
2002-02-13 10:34:04 51°8.351 2°31.275 9.05042 3.583258 33.205304  
2002-02-13 10:34:10 51°8.352 2°31.276 9.049992 3.583158 33.205033  
2002-02-13 10:34:15 51°8.352 2°31.277 9.049278 3.583359 33.20786  
2002-02-13 10:34:20 51°8.352 2°31.278 9.04785 3.582657 33.203681  
2002-02-13 10:34:24 51°8.353 2°31.28 9.04785 3.582657 33.203681  
2002-02-13 10:34:30 51°8.353 2°31.281 9.047945 3.582757 33.206237  
2002-02-13 10:34:35 51°8.354 2°31.283 9.047993 3.583359 33.212433  
2002-02-13 10:34:40 51°8.354 2°31.285 9.04904 3.582757 33.206237  
2002-02-13 10:34:45 51°8.354 2°31.286 9.053037 3.583459 33.21499  
2002-02-13 10:34:50 51°8.355 2°31.288 9.133034 3.582657 33.207491  
2002-02-13 10:34:54 51°8.355 2°31.29 9.133034 3.582657 33.207491  
2002-02-13 10:34:58 51°8.355 2°31.291 9.053275 3.582457 33.205426  
2002-02-13 10:35:04 51°8.355 2°31.293 9.05299 3.582457 33.20695  
2002-02-13 10:35:09 51°8.355 2°31.295 9.052752 3.582457 33.20695  
2002-02-13 10:35:13 51°8.355 2°31.297 9.098184 3.583058 33.214671  
2002-02-13 10:35:19 51°8.356 2°31.299 9.061365 3.582657 33.207491  
2002-02-13 10:35:23 51°8.356 2°31.301 9.061365 3.582657 33.207491  
2002-02-13 10:35:29 51°8.356 2°31.303 9.135648 3.582757 33.206237  
2002-02-13 10:35:32 51°8.356 2°31.305 9.097043 3.582858 33.206508  
2002-02-13 10:35:38 51°8.356 2°31.308 9.142302 3.582858 33.208794  
2002-02-13 10:35:42 51°8.356 2°31.31 9.143728 3.582858 33.205746  
2002-02-13 10:35:48 51°8.356 2°31.313 9.062793 3.582757 33.204713  
2002-02-13 10:35:53 51°8.357 2°31.316 9.062793 3.582757 33.204713  
2002-02-13 10:35:58 51°8.357 2°31.319 9.140449 3.582958 33.20373  
2002-02-13 10:36:04 51°8.357 2°31.322 9.067836 3.582958 33.205254  
2002-02-13 10:36:09 51°8.357 2°31.326 9.102607 3.582457 33.19933  
2002-02-13 10:36:13 51°8.357 2°31.328 9.061841 3.583058 33.204763  
2002-02-13 10:36:18 51°8.357 2°31.332 9.104319 3.583158 33.201986  
2002-02-13 10:36:22 51°8.357 2°31.334 9.104319 3.583158 33.201986  
2002-02-13 10:36:29 51°8.358 2°31.34 9.067836 3.58386 33.209974  
2002-02-13 10:36:32 51°8.358 2°31.342 9.076923 3.58396 33.211006  
2002-02-13 10:36:38 51°8.358 2°31.347 9.128043 3.583659 33.207147  
2002-02-13 10:36:42 51°8.358 2°31.35 9.095902 3.58386 33.209212  
2002-02-13 10:36:48 51°8.358 2°31.355 9.089338 3.58386 33.209974  
2002-02-13 10:36:54 51°8.358 2°31.36 9.089338 3.58386 33.209974  
2002-02-13 10:36:58 51°8.359 2°31.364 9.11844 3.583759 33.20818  
2002-02-13 10:37:02 51°8.359 2°31.367 9.089814 3.583359 33.201765  
2002-02-13 10:37:09 51°8.359 2°31.373 9.13446 3.583859 33.202356  
2002-02-13 10:37:12 51°8.359 2°31.376 9.173186 3.58436 33.200662  
2002-02-13 10:37:18 51°8.359 2°31.381 9.132131 3.585162 33.205872  
2002-02-13 10:37:22 51°8.36 2°31.385 9.132131 3.585162 33.205872  
2002-02-13 10:37:28 51°8.36 2°31.39 9.091241 3.585563 33.205431  
2002-02-13 10:37:34 51°8.36 2°31.396 9.088815 3.585462 33.205922  
2002-02-13 10:37:38 51°8.36 2°31.399 9.088244 3.586064 33.210589  
2002-02-13 10:37:42 51°8.361 2°31.402 9.159504 3.585362 33.201084  
2002-02-13 10:37:48 51°8.361 2°31.407 9.1548 3.586364 33.210639  
2002-02-13 10:37:53 51°8.361 2°31.412 9.1548 3.586364 33.210639  
2002-02-13 10:37:58 51°8.361 2°31.416 9.079302 3.586665 33.212211  
2002-02-13 10:38:04 51°8.361 2°31.42 9.073308 3.586264 33.206562  
2002-02-13 10:38:09 51°8.362 2°31.424 9.072166 3.586565 33.212702  
2002-02-13 10:38:14 51°8.362 2°31.428 9.080491 3.586064 33.210589  
2002-02-13 10:38:18 51°8.362 2°31.431 9.129992 3.586064 33.212874  
2002-02-13 10:38:22 51°8.362 2°31.434 9.129992 3.586064 33.212874  
2002-02-13 10:38:28 51°8.363 2°31.438 9.138357 3.586164 33.216952  
2002-02-13 10:38:33 51°8.363 2°31.442 9.098898 3.585663 33.212554  
2002-02-13 10:38:38 51°8.363 2°31.446 9.100752 3.585563 33.216093  
2002-02-13 10:38:42 51°8.363 2°31.448 9.111499 3.585563 33.216093  
2002-02-13 10:38:48 51°8.364 2°31.453 9.122006 3.584561 33.205011  
2002-02-13 10:38:54 51°8.364 2°31.457 9.122006 3.584561 33.205011  
2002-02-13 10:38:57 51°8.364 2°31.459 9.160169 3.58426 33.196585  
2002-02-13 10:39:04 51°8.364 2°31.463 9.11226 3.58416 33.190226  
2002-02-13 10:39:09 51°8.364 2°31.467 9.115731 3.58436 33.188485  
2002-02-13 10:39:14 51°8.365 2°31.47 9.116586 3.583659 33.177462  
2002-02-13 10:39:18 51°8.365 2°31.472 9.115683 3.583759 33.175452  
2002-02-13 10:39:22 51°8.365 2°31.475 9.115683 3.583759 33.175452  
2002-02-13 10:39:29 51°8.365 2°31.479 9.114352 3.583659 33.16454  
2002-02-13 10:39:33 51°8.366 2°31.482 9.114209 3.583458 33.161718  
2002-02-13 10:39:38 51°8.366 2°31.485 9.112165 3.583358 33.158408  
2002-02-13 10:39:43 51°8.366 2°31.487 9.150903 3.583558 33.16047  
2002-02-13 10:39:48 51°8.366 2°31.49 9.115303 3.583057 33.155315  
2002-02-13 10:39:54 51°8.367 2°31.494 9.115303 3.583057 33.155315  
2002-02-13 10:39:58 51°8.367 2°31.496 9.112117 3.582456 33.150649  
2002-02-13 10:40:04 51°8.367 2°31.499 9.148575 3.582356 33.148859  
2002-02-13 10:40:09 51°8.368 2°31.502 9.150903 3.582356 33.149618  
2002-02-13 10:40:14 51°8.368 2°31.504 9.111927 3.582757 33.153742  
2002-02-13 10:40:18 51°8.368 2°31.506 9.114685 3.582657 33.155749  
2002-02-13 10:40:22 51°8.369 2°31.508 9.114685 3.582657 33.155749  
2002-02-13 10:40:29 51°8.369 2°31.511 9.115255 3.582256 33.150107  
2002-02-13 10:40:33 51°8.369 2°31.513 9.153184 3.582456 33.152168  
2002-02-13 10:40:38 51°8.369 2°31.516 9.114494 3.582857 33.156292  
2002-02-13 10:40:44 51°8.37 2°31.519 9.11283 3.582857 33.154773  
2002-02-13 10:40:48 51°8.37 2°31.521 9.112593 3.583057 33.159114  
2002-02-13 10:40:52 51°8.37 2°31.522 9.112593 3.583057 33.159114  
2002-02-13 10:40:58 51°8.371 2°31.525 9.11535 3.582757 33.155261  
2002-02-13 10:41:02 51°8.371 2°31.527 9.113258 3.582456 33.151409  
2002-02-13 10:41:09 51°8.371 2°31.53 9.109645 3.582256 33.149347  
2002-02-13 10:41:14 51°8.371 2°31.533 9.191471 3.582556 33.15168  
2002-02-13 10:41:18 51°8.372 2°31.535 9.154325 3.581855 33.145224  
2002-02-13 10:41:22 51°8.372 2°31.536 9.154325 3.581855 33.145224  
2002-02-13 10:41:28 51°8.372 2°31.539 9.116349 3.581955 33.146254  
2002-02-13 10:41:32 51°8.372 2°31.541 9.119296 3.581955 33.146254  
2002-02-13 10:41:38 51°8.373 2°31.544 9.121863 3.581955 33.144736  
2002-02-13 10:41:43 51°8.373 2°31.546 9.629117 3.581955 33.145495  
2002-02-13 10:41:48 51°8.374 2°31.548 9.12657 3.581454 33.141859  
2002-02-13 10:41:54 51°8.374 2°31.551 9.12657 3.581454 33.141859  
2002-02-13 10:41:58 51°8.375 2°31.553 9.128043 3.581855 33.143705  
2002-02-13 10:42:02 51°8.375 2°31.554 9.12733 3.581554 33.140613  
2002-02-13 10:42:08 51°8.375 2°31.557 9.125191 3.581554 33.139094  
2002-02-13 10:42:14 51°8.375 2°31.559 9.12443 3.581053 33.131664  
2002-02-13 10:42:18 51°8.376 2°31.561 9.124335 3.581154 33.130418  
2002-02-13 10:42:22 51°8.376 2°31.563 9.124335 3.581154 33.130418  
2002-02-13 10:42:28 51°8.376 2°31.565 9.125429 3.581154 33.128142  
2002-02-13 10:42:32 51°8.376 2°31.567 9.165632 3.581053 33.125594  
2002-02-13 10:42:38 51°8.377 2°31.571 9.126855 3.581554 33.129229  
2002-02-13 10:42:42 51°8.377 2°31.573 9.166012 3.581354 33.129444  
2002-02-13 10:42:49 51°8.378 2°31.577 9.126142 3.580753 33.121744  
2002-02-13 10:42:54 51°8.379 2°31.581 9.126142 3.580753 33.121744  
2002-02-13 10:42:58 51°8.379 2°31.583 9.124003 3.581354 33.130203  
2002-02-13 10:43:02 51°8.38 2°31.586 9.127853 3.581354 33.129444  
2002-02-13 10:43:08 51°8.38 2°31.588 9.137787 3.581053 33.127111  
2002-02-13 10:43:12 51°8.38 2°31.59 9.17879 3.581354 33.127168  
2002-02-13 10:43:18 51°8.38 2°31.591 9.214167 3.580853 33.120499  
2002-02-13 10:43:22 51°8.38 2°31.592 9.214167 3.580853 33.120499  
2002-02-13 10:43:28 51°8.38 2°31.593 9.133414 3.581053 33.125594  
2002-02-13 10:43:33 51°8.379 2°31.595 9.132131 3.581454 33.129716  
2002-02-13 10:43:38 51°8.379 2°31.596 9.129136 3.581454 33.12744  
2002-02-13 10:43:44 51°8.379 2°31.598 9.127045 3.581454 33.123647  
2002-02-13 10:43:49 51°8.379 2°31.599 9.12657 3.582256 33.129614  
2002-02-13 10:43:53 51°8.379 2°31.6 9.12657 3.582256 33.129614  
2002-02-13 10:43:58 51°8.379 2°31.601 9.125144 3.581955 33.126523  
2002-02-13 10:44:02 51°8.378 2°31.602 9.122434 3.582456 33.133192  
2002-02-13 10:44:08 51°8.378 2°31.604 9.118868 3.581654 33.124191  
2002-02-13 10:44:12 51°8.378 2°31.605 9.117727 3.581554 33.123161  
2002-02-13 10:44:18 51°8.378 2°31.607 9.157033 3.581654 33.127225  
2002-02-13 10:44:22 51°8.378 2°31.608 9.157033 3.581654 33.127225  
2002-02-13 10:44:28 51°8.378 2°31.609 9.119677 3.581354 33.125651  
2002-02-13 10:44:34 51°8.377 2°31.611 9.120818 3.581454 33.128198  
2002-02-13 10:44:38 51°8.377 2°31.612 9.122291 3.581354 33.127926  
2002-02-13 10:44:42 51°8.377 2°31.613 9.122957 3.581454 33.131233  
2002-02-13 10:44:48 51°8.377 2°31.615 9.162877 3.580953 33.129115  
2002-02-13 10:44:52 51°8.376 2°31.616 9.162877 3.580953 33.129115  
2002-02-13 10:44:58 51°8.376 2°31.617 9.16473 3.581354 33.133997  
2002-02-13 10:45:02 51°8.376 2°31.619 9.125619 3.580753 33.129331  
2002-02-13 10:45:08 51°8.376 2°31.62 9.16606 3.580753 33.125537  
2002-02-13 10:45:12 51°8.375 2°31.621 9.128851 3.581154 33.1289  
2002-02-13 10:45:18 51°8.375 2°31.623 9.129897 3.580853 33.127326  
2002-02-13 10:45:22 51°8.375 2°31.624 9.129897 3.580853 33.127326  
2002-02-13 10:45:28 51°8.375 2°31.626 9.17081 3.580753 33.12402  
2002-02-13 10:45:34 51°8.375 2°31.628 9.131988 3.580552 33.121959  
2002-02-13 10:45:38 51°8.375 2°31.629 9.171808 3.580452 33.12017  
2002-02-13 10:45:42 51°8.374 2°31.63 9.133605 3.581053 33.124835  
2002-02-13 10:45:48 51°8.374 2°31.632 9.407705 3.580252 33.116592  
2002-02-13 10:45:52 51°8.374 2°31.633 9.407705 3.580252 33.116592  
2002-02-13 10:45:58 51°8.374 2°31.635 9.135886 3.580552 33.118925  
2002-02-13 10:46:02 51°8.373 2°31.636 9.136076 3.580753 33.11871  
2002-02-13 10:46:09 51°8.373 2°31.638 9.136219 3.580753 33.11871  
2002-02-13 10:46:14 51°8.373 2°31.64 9.134555 3.580552 33.114375  
2002-02-13 10:46:18 51°8.373 2°31.641 9.132844 3.580753 33.114919  
2002-02-13 10:46:22 51°8.373 2°31.642 9.132844 3.580753 33.114919  
2002-02-13 10:46:28 51°8.373 2°31.644 9.130848 3.580753 33.116435  
2002-02-13 10:46:34 51°8.373 2°31.646 9.131133 3.581153 33.117523  
2002-02-13 10:46:38 51°8.373 2°31.647 9.13061 3.580853 33.115949  
2002-02-13 10:46:42 51°8.373 2°31.648 9.169765 3.581153 33.118282  
2002-02-13 10:46:49 51°8.372 2°31.65 9.16948 3.581053 33.117251  
2002-02-13 10:46:54 51°8.372 2°31.652 9.16948 3.581053 33.117251  
2002-02-13 10:46:59 51°8.372 2°31.653 9.130325 3.580853 33.117466  
2002-02-13 10:47:03 51°8.372 2°31.654 9.207235 3.581454 33.121372  
2002-02-13 10:47:09 51°8.372 2°31.656 9.129754 3.580753 33.116435  
2002-02-13 10:47:13 51°8.372 2°31.657 9.16967 3.580853 33.117466  
2002-02-13 10:47:19 51°8.372 2°31.659 9.208944 3.581053 33.120284  
2002-02-13 10:47:23 51°8.372 2°31.66 9.208944 3.581053 33.120284  
2002-02-13 10:47:29 51°8.372 2°31.662 9.132606 3.580953 33.119254  
2002-02-13 10:47:33 51°8.372 2°31.663 9.132844 3.581153 33.120556  
2002-02-13 10:47:39 51°8.372 2°31.665 9.133462 3.580753 33.119469  
2002-02-13 10:47:43 51°8.372 2°31.666 9.132939 3.581053 33.121043  
2002-02-13 10:47:48 51°8.372 2°31.668 9.172188 3.581254 33.123103  
2002-02-13 10:47:54 51°8.371 2°31.669 9.172188 3.581254 33.123103  
2002-02-13 10:47:58 51°8.371 2°31.671 9.173233 3.581053 33.120284  
2002-02-13 10:48:04 51°8.371 2°31.673 9.172806 3.581254 33.122345  
2002-02-13 10:48:09 51°8.371 2°31.674 9.134127 3.580753 33.117194  
2002-02-13 10:48:13 51°8.371 2°31.675 9.133985 3.580753 33.117194  
2002-02-13 10:48:18 51°8.371 2°31.677 9.134555 3.581354 33.120342  
2002-02-13 10:48:22 51°8.371 2°31.678 9.134555 3.581354 33.120342  
2002-02-13 10:48:29 51°8.372 2°31.682 9.173043 3.580452 33.113345  
2002-02-13 10:48:33 51°8.372 2°31.685 9.173661 3.580753 33.115677  
2002-02-13 10:48:38 51°8.373 2°31.689 9.136266 3.581053 33.118768  
2002-02-13 10:48:44 51°8.375 2°31.697 9.174231 3.580953 33.117738  
2002-02-13 10:48:46 51°8.375 2°31.7 9.135458 3.581354 33.120342  
2002-02-13 10:48:52 51°8.378 2°31.711 9.135458 3.581354 33.120342  
2002-02-13 10:48:58 51°8.382 2°31.724 9.136884 3.581053 33.119526  
2002-02-13 10:49:03 51°8.386 2°31.735 9.137217 3.581454 33.122889  
2002-02-13 10:49:09 51°8.391 2°31.75 9.135363 3.580753 33.114919  
2002-02-13 10:49:12 51°8.393 2°31.758 9.133272 3.580753 33.114161  
2002-02-13 10:49:18 51°8.399 2°31.774 9.132416 3.581354 33.119584  
2002-02-13 10:49:22 51°8.403 2°31.785 9.132416 3.581354 33.119584  
2002-02-13 10:49:29 51°8.411 2°31.805 9.13042 3.580953 33.116979  
2002-02-13 10:49:33 51°8.415 2°31.817 9.130277 3.581153 33.117523  
2002-02-13 10:49:37 51°8.42 2°31.829 9.128566 3.580953 33.115463  
2002-02-13 10:49:42 51°8.427 2°31.844 9.126997 3.580953 33.114705  
2002-02-13 10:49:49 51°8.436 2°31.866 9.126855 3.580953 33.116979  
2002-02-13 10:49:53 51°8.442 2°31.879 9.126855 3.580953 33.116979  
2002-02-13 10:49:58 51°8.448 2°31.895 9.126617 3.580853 33.117466  
2002-02-13 10:50:02 51°8.453 2°31.909 9.123242 3.581053 33.119526  
2002-02-13 10:50:08 51°8.459 2°31.931 9.158886 3.581153 33.121315  
2002-02-13 10:50:12 51°8.463 2°31.945 9.119391 3.581053 33.12256  
2002-02-13 10:50:19 51°8.467 2°31.972 9.120675 3.580753 33.119469  
2002-02-13 10:50:22 51°8.469 2°31.984 9.120675 3.580753 33.119469  
2002-02-13 10:50:28 51°8.472 2°32.008 9.119962 3.581254 33.12462  
2002-02-13 10:50:33 51°8.475 2°32.028 9.116824 3.581154 33.12359  
2002-02-13 10:50:37 51°8.476 2°32.044 9.116254 3.581755 33.13129  
2002-02-13 10:50:42 51°8.478 2°32.064 9.232915 3.581554 33.130746  
2002-02-13 10:50:48 51°8.481 2°32.088 9.115873 3.581955 33.135627  
2002-02-13 10:50:53 51°8.484 2°32.108 9.115873 3.581955 33.135627  
2002-02-13 10:50:58 51°8.486 2°32.128 9.113353 3.581454 33.130474  
2002-02-13 10:51:02 51°8.489 2°32.145 9.114494 3.581554 33.132264  
2002-02-13 10:51:08 51°8.493 2°32.169 9.11264 3.582055 33.140452  
2002-02-13 10:51:13 51°8.497 2°32.188 9.113971 3.581354 33.134756  
2002-02-13 10:51:18 51°8.501 2°32.208 9.114447 3.581955 33.142458  
2002-02-13 10:51:22 51°8.505 2°32.224 9.114447 3.581955 33.142458  
2002-02-13 10:51:28 51°8.51 2°32.247 9.112783 3.581655 33.139366  
2002-02-13 10:51:34 51°8.517 2°32.271 9.110738 3.581554 33.138335  
2002-02-13 10:51:38 51°8.52 2°32.286 9.188479 3.581454 33.138823  
2002-02-13 10:51:42 51°8.524 2°32.302 9.148623 3.582156 33.146797  
2002-02-13 10:51:49 51°8.531 2°32.329 9.107362 3.581354 33.138551  
2002-02-13 10:51:54 51°8.536 2°32.349 9.107362 3.581354 33.138551  
2002-02-13 10:51:58 51°8.54 2°32.364 9.103748 3.581454 33.138823  
2002-02-13 10:52:02 51°8.544 2°32.38 9.099706 3.581053 33.136218  
2002-02-13 10:52:09 51°8.55 2°32.408 9.096377 3.581454 33.1411  
2002-02-13 10:52:14 51°8.555 2°32.428 9.095236 3.581354 33.138551  
2002-02-13 10:52:18 51°8.559 2°32.444 9.131418 3.581354 33.142347  
2002-02-13 10:52:22 51°8.563 2°32.459 9.131418 3.581354 33.142347  
2002-02-13 10:52:28 51°8.568 2°32.483 9.130182 3.580853 33.137952  
2002-02-13 10:52:33 51°8.573 2°32.503 9.130943 3.580853 33.139471  
2002-02-13 10:52:37 51°8.577 2°32.519 9.130848 3.581755 33.151028  
2002-02-13 10:52:44 51°8.583 2°32.546 9.596703 3.581855 33.153579  
2002-02-13 10:52:48 51°8.587 2°32.562 9.091716 3.581755 33.156347  
2002-02-13 10:52:52 51°8.591 2°32.578 9.091716 3.581755 33.156347  
2002-02-13 10:52:58 51°8.597 2°32.602 9.090955 3.582456 33.165846  
2002-02-13 10:53:01 51°8.599 2°32.614 9.089529 3.581855 33.161938  
2002-02-13 10:53:08 51°8.606 2°32.642 9.089101 3.581354 33.156781  
2002-02-13 10:53:13 51°8.611 2°32.662 9.087816 3.581955 33.16449  
2002-02-13 10:53:18 51°8.616 2°32.682 9.087246 3.581955 33.16373  
2002-02-13 10:53:22 51°8.619 2°32.697 9.087246 3.581955 33.16373  
2002-02-13 10:53:28 51°8.625 2°32.721 9.163875 3.582356 33.169376  
2002-02-13 10:53:32 51°8.629 2°32.737 9.084344 3.581455 33.160093  
2002-02-13 10:53:38 51°8.635 2°32.76 9.079064 3.582156 33.167313  
2002-02-13 10:53:41 51°8.638 2°32.772 9.078065 3.581755 33.163948  
2002-02-13 10:53:49 51°8.645 2°32.804 9.075211 3.582056 33.167802  
2002-02-13 10:53:53 51°8.649 2°32.82 9.075211 3.582056 33.167802  
2002-02-13 10:53:58 51°8.654 2°32.839 9.114162 3.581655 33.162916  
2002-02-13 10:54:02 51°8.658 2°32.855 9.077304 3.582256 33.171386  
2002-02-13 10:54:08 51°8.663 2°32.879 9.080491 3.582156 33.171115  
2002-02-13 10:54:12 51°8.667 2°32.894 9.088768 3.581855 33.170302  
2002-02-13 10:54:17 51°8.672 2°32.914 9.093143 3.581855 33.173345  
2002-02-13 10:54:22 51°8.676 2°32.934 9.093143 3.581855 33.173345  
2002-02-13 10:54:28 51°8.682 2°32.957 9.098708 3.581956 33.175898  
2002-02-13 10:54:33 51°8.687 2°32.976 9.099992 3.581755 33.176117  
2002-02-13 10:54:37 51°8.691 2°32.992 9.108789 3.581655 33.175085  
2002-02-13 10:54:42 51°8.695 2°33.012 9.119534 3.582156 33.177201  
2002-02-13 10:54:48 51°8.701 2°33.035 9.124716 3.582056 33.173126  
2002-02-13 10:54:52 51°8.704 2°33.051 9.124716 3.582056 33.173126  
2002-02-13 10:54:57 51°8.709 2°33.07 9.16834 3.582356 33.172418  
2002-02-13 10:55:03 51°8.715 2°33.094 9.133034 3.582857 33.173013  
2002-02-13 10:55:08 51°8.72 2°33.113 9.131038 3.583559 33.177191  
2002-02-13 10:55:12 51°8.723 2°33.129 9.136314 3.583358 33.170566  
2002-02-13 10:55:18 51°8.729 2°33.152 9.13831 3.583558 33.165028  
2002-02-13 10:55:22 51°8.733 2°33.168 9.13831 3.583558 33.165028  
2002-02-13 10:55:29 51°8.739 2°33.195 9.175751 3.584059 33.164864  
2002-02-13 10:55:33 51°8.743 2°33.211 9.142064 3.58436 33.163399  
2002-02-13 10:55:38 51°8.748 2°33.23 9.136932 3.585061 33.167575  
2002-02-13 10:55:44 51°8.754 2°33.254 9.136361 3.585161 33.166327  
2002-02-13 10:55:48 51°8.757 2°33.269 9.179883 3.585662 33.168442  
2002-02-13 10:55:53 51°8.762 2°33.289 9.179883 3.585662 33.168442  
2002-02-13 10:55:58 51°8.766 2°33.309 9.143823 3.585462 33.164103  
2002-02-13 10:56:02 51°8.77 2°33.325 9.146294 3.585662 33.165405  
2002-02-13 10:56:09 51°8.775 2°33.353 9.147435 3.585762 33.164157  
2002-02-13 10:56:14 51°8.779 2°33.373 9.152139 3.586163 33.168279  
2002-02-13 10:56:18 51°8.783 2°33.389 9.153564 3.585462 33.161825  
2002-02-13 10:56:22 51°8.786 2°33.405 9.153564 3.585462 33.161825  
2002-02-13 10:56:29 51°8.791 2°33.433 9.157318 3.586364 33.168821  
2002-02-13 10:56:32 51°8.793 2°33.445 9.158506 3.586263 33.167031  
2002-02-13 10:56:38 51°8.798 2°33.469 9.200636 3.586364 33.165784  
2002-02-13 10:56:42 51°8.801 2°33.485 9.162354 3.586063 33.158898  
2002-02-13 10:56:49 51°8.807 2°33.513 9.163447 3.586564 33.16329  
2002-02-13 10:56:53 51°8.81 2°33.53 9.163447 3.586564 33.16329  
2002-02-13 10:56:58 51°8.814 2°33.55 9.161452 3.586564 33.160254  
2002-02-13 10:57:02 51°8.817 2°33.566 9.164302 3.587065 33.163886  
2002-02-13 10:57:08 51°8.823 2°33.59 9.24307 3.587165 33.163398  
2002-02-13 10:57:14 51°8.828 2°33.614 9.167723 3.586564 33.153426  
2002-02-13 10:57:18 51°8.831 2°33.63 9.207188 3.586764 33.15321  
2002-02-13 10:57:22 51°8.835 2°33.646 9.207188 3.586764 33.15321  
2002-02-13 10:57:26 51°8.838 2°33.662 9.245775 3.587065 33.155541  
2002-02-13 10:57:33 51°8.844 2°33.69 9.167865 3.586864 33.153481  
2002-02-13 10:57:38 51°8.847 2°33.71 9.167865 3.586664 33.151422  
2002-02-13 10:57:42 51°8.851 2°33.726 9.205051 3.587566 33.158414  
2002-02-13 10:57:48 51°8.856 2°33.751 9.169195 3.587766 33.160473  
2002-02-13 10:57:54 51°8.861 2°33.775 9.169195 3.587766 33.160473  
2002-02-13 10:57:58 51°8.865 2°33.791 9.17119 3.586764 33.14866  
2002-02-13 10:58:02 51°8.868 2°33.807 9.169385 3.587065 33.150232  
2002-02-13 10:58:08 51°8.873 2°33.832 9.167343 3.587265 33.152291  
2002-02-13 10:58:12 51°8.876 2°33.848 9.24307 3.587766 33.158198  
2002-02-13 10:58:18 51°8.881 2°33.872 9.204766 3.587666 33.155651  
2002-02-13 10:58:22 51°8.884 2°33.888 9.204766 3.587666 33.155651  
2002-02-13 10:58:28 51°8.889 2°33.913 9.245443 3.587666 33.155651  
2002-02-13 10:58:34 51°8.895 2°33.937 9.16967 3.586764 33.147902  
2002-02-13 10:58:38 51°8.898 2°33.953 9.209609 3.587365 33.152563  
2002-02-13 10:58:42 51°8.901 2°33.969 9.248337 3.586965 33.150719  
2002-02-13 10:58:49 51°8.907 2°33.998 9.171475 3.588267 33.163346  
2002-02-13 10:58:54 51°8.912 2°34.018 9.171475 3.588267 33.163346  
2002-02-13 10:58:58 51°8.915 2°34.034 9.209609 3.587766 33.158198  
2002-02-13 10:59:04 51°8.92 2°34.059 9.169765 3.587466 33.158142  
2002-02-13 10:59:08 51°8.924 2°34.075 9.168483 3.587265 33.15305  
2002-02-13 10:59:12 51°8.927 2°34.091 9.166868 3.587566 33.154622  
2002-02-13 10:59:18 51°8.932 2°34.116 9.167865 3.587465 33.151317  
2002-02-13 10:59:22 51°8.936 2°34.132 9.167865 3.587465 33.151317  
2002-02-13 10:59:28 51°8.941 2°34.156 9.16891 3.587766 33.155922  
2002-02-13 10:59:32 51°8.944 2°34.172 9.210036 3.587165 33.148987  
2002-02-13 10:59:38 51°8.949 2°34.197 9.210369 3.587766 33.154406  
2002-02-13 10:59:42 51°8.953 2°34.213 9.172901 3.587766 33.155922  
2002-02-13 10:59:48 51°8.958 2°34.238 9.173661 3.587866 33.156194  
2002-02-13 10:59:52 51°8.961 2°34.254 9.173661 3.587866 33.156194  
2002-02-13 10:59:58 51°8.966 2°34.278 9.214784 3.587966 33.157223  
2002-02-13 11:00:02 51°8.97 2°34.295 9.176606 3.587866 33.156194  
2002-02-13 11:00:08 51°8.975 2°34.319 9.177508 3.588067 33.158253  
2002-02-13 11:00:12 51°8.978 2°34.336 9.179218 3.587566 33.152347  
2002-02-13 11:00:18 51°8.982 2°34.361 9.179645 3.588167 33.155491  
2002-02-13 11:00:22 51°8.985 2°34.377 9.179645 3.588167 33.155491  
2002-02-13 11:00:26 51°8.987 2°34.394 9.21972 3.587465 33.149043  
2002-02-13 11:00:32 51°8.991 2°34.419 9.179883 3.586664 33.139292  
2002-02-13 11:00:37 51°8.993 2°34.44 9.180073 3.587866 33.150886  
2002-02-13 11:00:42 51°8.996 2°34.462 9.179835 3.588167 33.153216  
2002-02-13 11:00:48 51°9 2°34.487 9.180025 3.587966 33.149642  
2002-02-13 11:00:54 51°9.003 2°34.512 9.180025 3.587966 33.149642  
2002-02-13 11:00:58 51°9.005 2°34.53 9.179408 3.587966 33.149642  
2002-02-13 11:01:02 51°9.007 2°34.547 9.219198 3.587966 33.147368  
2002-02-13 11:01:08 51°9.01 2°34.572 9.179645 3.587766 33.145309  
2002-02-13 11:01:12 51°9.013 2°34.589 9.178078 3.587866 33.145581  
2002-02-13 11:01:17 51°9.016 2°34.611 9.212458 3.588668 33.153057  
2002-02-13 11:01:22 51°9.019 2°34.632 9.212458 3.588668 33.153057  
2002-02-13 11:01:28 51°9.023 2°34.657 9.170383 3.588067 33.146881  
2002-02-13 11:01:33 51°9.027 2°34.678 9.205479 3.587866 33.145581  
2002-02-13 11:01:38 51°9.03 2°34.699 9.162354 3.588267 33.149698  
2002-02-13 11:01:44 51°9.034 2°34.724 9.159646 3.588768 33.15636  
2002-02-13 11:01:48 51°9.036 2°34.741 9.156938 3.586864 33.140593  
2002-02-13 11:01:54 51°9.04 2°34.766 9.156938 3.586864 33.140593  
2002-02-13 11:01:58 51°9.042 2°34.783 9.154182 3.588167 33.150942  
2002-02-13 11:02:04 51°9.046 2°34.808 9.153279 3.588067 33.154461  
2002-02-13 11:02:08 51°9.048 2°34.825 9.151331 3.587966 33.15419  
2002-02-13 11:02:12 51°9.051 2°34.842 9.190616 3.589069 33.16779  
2002-02-13 11:02:18 51°9.053 2°34.868 9.150618 3.588167 33.160799  
2002-02-13 11:02:22 51°9.055 2°34.885 9.150618 3.588167 33.160799  
2002-02-13 11:02:28 51°9.058 2°34.91 9.150571 3.588267 33.164104  
2002-02-13 11:02:33 51°9.06 2°34.931 9.149715 3.588568 33.167952  
2002-02-13 11:02:38 51°9.063 2°34.952 9.149383 3.587866 33.163779  
2002-02-13 11:02:42 51°9.065 2°34.969 9.150191 3.587766 33.16199  
2002-02-13 11:02:48 51°9.068 2°34.995 9.150191 3.587265 33.161393  
2002-02-13 11:02:53 51°9.07 2°35.016 9.150191 3.587265 33.161393  
2002-02-13 11:02:58 51°9.073 2°35.037 9.149145 3.588668 33.175812  
2002-02-13 11:03:02 51°9.075 2°35.054 9.188717 3.587365 33.163182  
2002-02-13 11:03:08 51°9.078 2°35.079 9.149763 3.586864 33.161067  
2002-02-13 11:03:14 51°9.082 2°35.104 9.150191 3.587165 33.164157  
2002-02-13 11:03:18 51°9.084 2°35.121 9.189192 3.587566 33.167518  
2002-02-13 11:03:22 51°9.086 2°35.138 9.189192 3.587566 33.167518  
2002-02-13 11:03:27 51°9.089 2°35.159 9.150951 3.586564 33.158736  
2002-02-13 11:03:33 51°9.092 2°35.184 9.151854 3.587766 33.173374  
2002-02-13 11:03:37 51°9.094 2°35.201 9.153469 3.587466 33.169524  
2002-02-13 11:03:43 51°9.098 2°35.227 9.153754 3.587566 33.169036  
2002-02-13 11:03:48 51°9.1 2°35.248 9.154325 3.587065 33.165404  
2002-02-13 11:03:53 51°9.103 2°35.269 9.154325 3.587065 33.165404  
2002-02-13 11:03:58 51°9.105 2°35.29 9.153897 3.586764 33.161555  
2002-02-13 11:04:02 51°9.107 2°35.307 9.15537 3.587165 33.167193  
2002-02-13 11:04:08 51°9.11 2°35.332 9.193893 3.586664 33.160525  
2002-02-13 11:04:13 51°9.112 2°35.354 9.15537 3.586263 33.156405  
2002-02-13 11:04:18 51°9.115 2°35.375 9.157223 3.587165 33.165675  
2002-02-13 11:04:23 51°9.117 2°35.396 9.157223 3.587165 33.165675  
2002-02-13 11:04:28 51°9.119 2°35.417 9.23562 3.587365 33.165458  
2002-02-13 11:04:34 51°9.121 2°35.443 9.158886 3.588067 33.17115  
2002-02-13 11:04:38 51°9.123 2°35.46 9.198072 3.587265 33.16367  
2002-02-13 11:04:42 51°9.125 2°35.477 9.201253 3.587365 33.1647  
2002-02-13 11:04:48 51°9.127 2°35.502 9.165347 3.587566 33.165242  
2002-02-13 11:04:53 51°9.13 2°35.524 9.165347 3.587566 33.165242  
2002-02-13 11:04:58 51°9.132 2°35.545 9.172473 3.587866 33.16909  
2002-02-13 11:05:02 51°9.134 2°35.562 9.180928 3.587466 33.163453  
2002-02-13 11:05:08 51°9.136 2°35.587 9.187767 3.587967 33.167844  
2002-02-13 11:05:12 51°9.138 2°35.604 9.193513 3.587365 33.161664  
2002-02-13 11:05:17 51°9.141 2°35.626 9.197217 3.587065 33.156299  
2002-02-13 11:05:23 51°9.144 2°35.651 9.197217 3.587065 33.156299  
2002-02-13 11:05:28 51°9.146 2°35.673 9.199686 3.587165 33.155812  
2002-02-13 11:05:33 51°9.148 2°35.694 9.202677 3.587265 33.151533  
2002-02-13 11:05:38 51°9.15 2°35.716 9.204197 3.587766 33.154406  
2002-02-13 11:05:43 51°9.153 2°35.737 9.205811 3.588167 33.149426  
2002-02-13 11:05:47 51°9.154 2°35.754 9.207188 3.588267 33.145151  
2002-02-13 11:05:53 51°9.157 2°35.78 9.207188 3.588267 33.145151  
2002-02-13 11:05:57 51°9.159 2°35.798 9.207615 3.587565 33.135675  
2002-02-13 11:06:01 51°9.161 2°35.815 9.246439 3.588367 33.139362  
2002-02-13 11:06:07 51°9.163 2°35.841 9.245728 3.588567 33.139905  
2002-02-13 11:06:12 51°9.165 2°35.862 9.205669 3.588367 33.135576  
2002-02-13 11:06:18 51°9.168 2°35.889 9.205953 3.589168 33.141534  
2002-02-13 11:06:22 51°9.169 2°35.906 9.205953 3.589168 33.141534  
2002-02-13 11:06:27 51°9.172 2°35.928 9.244779 3.588467 33.13509  
2002-02-13 11:06:33 51°9.174 2°35.954 9.205099 3.588968 33.135691  
2002-02-13 11:06:37 51°9.176 2°35.971 9.204244 3.589369 33.139048  
2002-02-13 11:06:42 51°9.177 2°35.993 9.202915 3.589068 33.135963  
2002-02-13 11:06:47 51°9.18 2°36.015 9.20149 3.589369 33.139048  
2002-02-13 11:06:53 51°9.182 2°36.041 9.20149 3.589369 33.139048  
2002-02-13 11:06:57 51°9.184 2°36.058 9.200351 3.588768 33.134391  
2002-02-13 11:07:03 51°9.186 2°36.085 9.199971 3.588267 33.130005  
2002-02-13 11:07:08 51°9.188 2°36.106 9.198641 3.58997 33.146734  
2002-02-13 11:07:13 51°9.19 2°36.128 9.276088 3.589469 33.140077  
2002-02-13 11:07:17 51°9.191 2°36.145 9.275329 3.589168 33.139263  
2002-02-13 11:07:22 51°9.194 2°36.167 9.275329 3.589168 33.139263  
2002-02-13 11:07:28 51°9.196 2°36.193 9.23581 3.589269 33.141806  
2002-02-13 11:07:33 51°9.198 2°36.215 9.196695 3.589068 33.141263  
2002-02-13 11:07:38 51°9.2 2°36.237 9.19584 3.589168 33.140777  
2002-02-13 11:07:44 51°9.203 2°36.263 9.19622 3.588567 33.136119  
2002-02-13 11:07:49 51°9.204 2°36.285 9.19679 3.58977 33.148464  
2002-02-13 11:07:52 51°9.206 2°36.298 9.19679 3.58977 33.148464  
2002-02-13 11:07:58 51°9.208 2°36.324 9.196932 3.589068 33.14202  
2002-02-13 11:08:03 51°9.21 2°36.345 9.235335 3.588668 33.137905  
2002-02-13 11:08:08 51°9.212 2°36.367 9.236474 3.589068 33.140505  
2002-02-13 11:08:13 51°9.214 2°36.389 9.199639 3.588868 33.142992  
2002-02-13 11:08:18 51°9.216 2°36.411 9.200398 3.588066 33.134761  
2002-02-13 11:08:23 51°9.218 2°36.432 9.200398 3.588066 33.134761  
2002-02-13 11:08:28 51°9.22 2°36.454 9.199829 3.588768 33.141206  
2002-02-13 11:08:32 51°9.222 2°36.471 9.201253 3.588768 33.138934  
2002-02-13 11:08:37 51°9.224 2°36.493 9.20339 3.589169 33.144563  
2002-02-13 11:08:43 51°9.226 2°36.519 9.245063 3.589169 33.144563  
2002-02-13 11:08:48 51°9.228 2°36.54 9.207425 3.588868 33.141477  
2002-02-13 11:08:53 51°9.23 2°36.562 9.207425 3.588868 33.141477  
2002-02-13 11:08:57 51°9.231 2°36.579 9.24829 3.589269 33.144078  
2002-02-13 11:09:03 51°9.234 2°36.605 9.211888 3.588467 33.133576  
2002-02-13 11:09:08 51°9.236 2°36.626 9.214451 3.588667 33.136391  
2002-02-13 11:09:13 51°9.238 2°36.647 9.255738 3.587766 33.128647  
2002-02-13 11:09:18 51°9.24 2°36.669 9.218534 3.588467 33.133576  
2002-02-13 11:09:23 51°9.242 2°36.69 9.218534 3.588467 33.133576  
2002-02-13 11:09:28 51°9.244 2°36.711 9.259249 3.588367 33.128763  
2002-02-13 11:09:33 51°9.246 2°36.733 9.260293 3.587766 33.121835  
2002-02-13 11:09:38 51°9.248 2°36.754 9.221951 3.586663 33.108253  
2002-02-13 11:09:42 51°9.25 2°36.771 9.261147 3.586864 33.109553  
2002-02-13 11:09:47 51°9.252 2°36.793 9.222758 3.587766 33.115026  
2002-02-13 11:09:53 51°9.255 2°36.818 9.222758 3.587766 33.115026  
2002-02-13 11:09:58 51°9.256 2°36.84 9.224325 3.586864 33.105772  
2002-02-13 11:10:03 51°9.258 2°36.861 9.224372 3.587265 33.106861  
2002-02-13 11:10:08 51°9.261 2°36.883 9.224372 3.587365 33.106377  
2002-02-13 11:10:12 51°9.262 2°36.9 9.225084 3.586764 33.098696  
2002-02-13 11:10:17 51°9.264 2°36.922 9.224989 3.586263 33.092801  
2002-02-13 11:10:23 51°9.265 2°36.948 9.224989 3.586263 33.092801  
2002-02-13 11:10:28 51°9.267 2°36.969 9.26442 3.586563 33.094373  
2002-02-13 11:10:33 51°9.269 2°36.991 9.226128 3.586463 33.094101  
2002-02-13 11:10:37 51°9.27 2°37.008 9.226508 3.586864 33.097457  
2002-02-13 11:10:43 51°9.272 2°37.035 9.265653 3.586463 33.093345  
2002-02-13 11:10:48 51°9.274 2°37.056 9.22684 3.586864 33.094435  
2002-02-13 11:10:51 51°9.274 2°37.069 9.22684 3.586864 33.094435  
2002-02-13 11:10:57 51°9.276 2°37.095 9.22741 3.586663 33.092379  
2002-02-13 11:11:03 51°9.278 2°37.121 9.228122 3.585661 33.084367  
2002-02-13 11:11:08 51°9.279 2°37.143 9.228691 3.586363 33.08854  
2002-02-13 11:11:13 51°9.28 2°37.165 9.229925 3.585461 33.07929  
2002-02-13 11:11:18 51°9.282 2°37.187 9.229593 3.58526 33.077989  
2002-02-13 11:11:22 51°9.283 2°37.204 9.229593 3.58526 33.077989  
2002-02-13 11:11:27 51°9.284 2°37.226 9.23021 3.585361 33.077507  
2002-02-13 11:11:32 51°9.286 2°37.247 9.230447 3.58526 33.077989  
2002-02-13 11:11:37 51°9.287 2°37.269 9.231112 3.584659 33.070313  
2002-02-13 11:11:42 51°9.288 2°37.291 9.23282 3.58516 33.075451  
2002-02-13 11:11:48 51°9.291 2°37.317 9.23263 3.58516 33.073941  
2002-02-13 11:11:53 51°9.292 2°37.339 9.23263 3.58516 33.073941  
2002-02-13 11:11:58 51°9.294 2°37.361 9.23339 3.584659 33.069558  
2002-02-13 11:12:04 51°9.295 2°37.387 9.234481 3.583657 33.060036  
2002-02-13 11:12:08 51°9.297 2°37.404 9.234766 3.584559 33.06702  
2002-02-13 11:12:13 51°9.299 2°37.426 9.351262 3.58496 33.071131  
2002-02-13 11:12:18 51°9.3 2°37.448 9.234908 3.584359 33.063455  
2002-02-13 11:12:23 51°9.302 2°37.47 9.234908 3.584359 33.063455  
2002-02-13 11:12:28 51°9.303 2°37.492 9.273479 3.583657 33.055508  
2002-02-13 11:12:34 51°9.305 2°37.518 9.235241 3.583757 33.055781  
2002-02-13 11:12:38 51°9.307 2°37.536 9.235383 3.584258 33.060918  
2002-02-13 11:12:42 51°9.308 2°37.553 9.274475 3.584359 33.061946  
2002-02-13 11:12:47 51°9.309 2°37.575 9.235668 3.583357 33.051671  
2002-02-13 11:12:53 51°9.311 2°37.602 9.235668 3.583357 33.051671  
2002-02-13 11:12:58 51°9.313 2°37.623 9.236285 3.583657 33.053244  
2002-02-13 11:13:02 51°9.313 2°37.641 9.237946 3.582956 33.046052  
2002-02-13 11:13:08 51°9.315 2°37.668 9.238373 3.583557 33.051463  
2002-02-13 11:13:13 51°9.316 2°37.69 9.238942 3.582555 33.041189  
2002-02-13 11:13:18 51°9.317 2°37.712 9.277795 3.582755 33.044752  
2002-02-13 11:13:23 51°9.317 2°37.734 9.277795 3.582755 33.044752  
2002-02-13 11:13:28 51°9.317 2°37.756 9.278079 3.583156 33.048862  
2002-02-13 11:13:33 51°9.318 2°37.778 9.240888 3.582254 33.038861  
2002-02-13 11:13:38 51°9.319 2°37.8 9.280735 3.582054 33.036806  
2002-02-13 11:13:43 51°9.32 2°37.823 9.281636 3.581854 33.034751  
2002-02-13 11:13:48 51°9.32 2°37.845 9.282774 3.581854 33.032489  
2002-02-13 11:13:53 51°9.321 2°37.867 9.282774 3.581854 33.032489  
2002-02-13 11:13:58 51°9.323 2°37.889 9.243735 3.581954 33.033517  
2002-02-13 11:14:02 51°9.324 2°37.907 9.244067 3.581753 33.029954  
2002-02-13 11:14:08 51°9.325 2°37.933 9.244589 3.581453 33.026119  
2002-02-13 11:14:13 51°9.326 2°37.955 9.284292 3.581353 33.025845  
2002-02-13 11:14:18 51°9.327 2°37.977 9.36192 3.581252 33.022557  
2002-02-13 11:14:23 51°9.329 2°38 9.36192 3.581252 33.022557  
2002-02-13 11:14:28 51°9.33 2°38.022 9.245917 3.580952 33.017969  
2002-02-13 11:14:33 51°9.331 2°38.044 9.28562 3.58025 33.01078  
2002-02-13 11:14:37 51°9.332 2°38.062 9.286189 3.580751 33.018175  
2002-02-13 11:14:43 51°9.333 2°38.088 9.248622 3.580551 33.014614  
2002-02-13 11:14:48 51°9.335 2°38.111 9.287327 3.580952 33.016462  
2002-02-13 11:14:53 51°9.336 2°38.133 9.287327 3.580952 33.016462  
2002-02-13 11:14:58 51°9.337 2°38.155 9.250188 3.580952 33.017216  
2002-02-13 11:15:03 51°9.338 2°38.178 9.250757 3.580551 33.013107  
2002-02-13 11:15:08 51°9.338 2°38.2 9.250282 3.580952 33.016462  
2002-02-13 11:15:13 51°9.338 2°38.222 9.250994 3.58025 33.009273  
2002-02-13 11:15:17 51°9.338 2°38.24 9.251753 3.58025 33.007014  
2002-02-13 11:15:23 51°9.337 2°38.267 9.251753 3.58025 33.007014  
2002-02-13 11:15:28 51°9.336 2°38.289 9.25275 3.57995 33.004686  
2002-02-13 11:15:33 51°9.336 2°38.311 9.331221 3.579549 32.999825  
2002-02-13 11:15:37 51°9.335 2°38.329 9.25441 3.579649 32.999347  
2002-02-13 11:15:43 51°9.334 2°38.356 9.254884 3.579649 32.999347  
2002-02-13 11:15:48 51°9.333 2°38.378 9.256308 3.579449 32.997293  
2002-02-13 11:15:53 51°9.333 2°38.401 9.256308 3.579449 32.997293  
2002-02-13 11:15:57 51°9.333 2°38.419 9.295956 3.579349 32.994008  
2002-02-13 11:16:02 51°9.333 2°38.441 9.297568 3.578848 32.988874  
2002-02-13 11:16:08 51°9.333 2°38.468 9.259249 3.579449 32.992024  
2002-02-13 11:16:12 51°9.334 2°38.486 9.299512 3.579048 32.989422  
2002-02-13 11:16:18 51°9.334 2°38.511 9.261384 3.579048 32.990175  
2002-02-13 11:16:22 51°9.335 2°38.528 9.261384 3.579048 32.990175  
2002-02-13 11:16:28 51°9.336 2°38.55 9.26238 3.578848 32.985864  
2002-02-13 11:16:33 51°9.338 2°38.568 9.264135 3.578848 32.985864  
2002-02-13 11:16:38 51°9.339 2°38.585 9.264562 3.578848 32.988121  
2002-02-13 11:16:43 51°9.341 2°38.6 9.265558 3.578647 32.982306  
2002-02-13 11:16:48 51°9.343 2°38.613 9.266222 3.578447 32.978749  
2002-02-13 11:16:53 51°9.346 2°38.624 9.266222 3.578447 32.978749  
2002-02-13 11:16:58 51°9.348 2°38.633 9.269827 3.577846 32.973341  
2002-02-13 11:17:04 51°9.35 2°38.642 9.274665 3.578647 32.98005  
2002-02-13 11:17:08 51°9.352 2°38.645 9.270491 3.578647 32.978545  
2002-02-13 11:17:14 51°9.353 2°38.65 9.269969 3.578547 32.977519  
2002-02-13 11:17:18 51°9.354 2°38.654 9.308661 3.578948 32.979368  
2002-02-13 11:17:23 51°9.355 2°38.657 9.308661 3.578948 32.979368  
2002-02-13 11:17:28 51°9.356 2°38.661 9.307761 3.577044 32.96137  
2002-02-13 11:17:33 51°9.357 2°38.665 9.306623 3.578346 32.971706  
2002-02-13 11:17:37 51°9.358 2°38.667 9.267645 3.578046 32.964869  
2002-02-13 11:17:42 51°9.359 2°38.671 9.266839 3.578447 32.969725  
2002-02-13 11:17:48 51°9.361 2°38.675 9.267693 3.578447 32.970477  
2002-02-13 11:17:52 51°9.362 2°38.678 9.267693 3.578447 32.970477  
2002-02-13 11:17:58 51°9.365 2°38.682 9.306196 3.578346 32.970203  
2002-02-13 11:18:03 51°9.366 2°38.686 9.306386 3.577545 32.961241  
2002-02-13 11:18:08 51°9.368 2°38.689 9.344962 3.577745 32.962542  
2002-02-13 11:18:13 51°9.37 2°38.693 9.305627 3.578146 32.968902  
2002-02-13 11:18:18 51°9.372 2°38.697 9.307381 3.577946 32.966849  
2002-02-13 11:18:23 51°9.374 2°38.7 9.307381 3.577946 32.966849  
2002-02-13 11:18:27 51°9.375 2°38.703 9.3207 3.578246 32.97068  
2002-02-13 11:18:32 51°9.377 2°38.707 9.326198 3.578146 32.968902  
2002-02-13 11:18:38 51°9.379 2°38.712 9.289982 3.578146 32.967398  
2002-02-13 11:18:43 51°9.381 2°38.715 9.285477 3.577545 32.963496  
2002-02-13 11:18:48 51°9.383 2°38.719 9.281304 3.578246 32.969928  
2002-02-13 11:18:53 51°9.384 2°38.723 9.281304 3.578246 32.969928  
2002-02-13 11:18:58 51°9.386 2°38.727 9.354389 3.577946 32.966849  
2002-02-13 11:19:02 51°9.388 2°38.731 9.27253 3.578246 32.965418  
2002-02-13 11:19:08 51°9.39 2°38.736 9.27125 3.578046 32.956604  
2002-02-13 11:19:12 51°9.392 2°38.739 9.270396 3.579348 32.966184  
2002-02-13 11:19:17 51°9.393 2°38.744 9.347141 3.579148 32.963381  
2002-02-13 11:19:24 51°9.396 2°38.751 9.347141 3.579148 32.963381  
2002-02-13 11:19:28 51°9.397 2°38.754 9.268641 3.579348 32.967687  
2002-02-13 11:19:33 51°9.399 2°38.759 9.267645 3.578747 32.964537  
2002-02-13 11:19:37 51°9.4 2°38.763 9.267787 3.580651 32.988544  
2002-02-13 11:19:42 51°9.401 2°38.768 9.267123 3.578747 32.971301  
2002-02-13 11:19:48 51°9.402 2°38.775 9.265558 3.578447 32.968222  
2002-02-13 11:19:54 51°9.404 2°38.781 9.265558 3.578447 32.968222  
2002-02-13 11:19:58 51°9.405 2°38.785 9.265937 3.578747 32.972052  
2002-02-13 11:20:02 51°9.406 2°38.79 9.264657 3.579348 32.977458  
2002-02-13 11:20:08 51°9.407 2°38.797 9.264704 3.578346 32.969451  
2002-02-13 11:20:13 51°9.408 2°38.802 9.264277 3.577946 32.965346  
2002-02-13 11:20:18 51°9.408 2°38.808 9.26442 3.578346 32.969451  
2002-02-13 11:20:22 51°9.409 2°38.814 9.26442 3.578346 32.969451  
2002-02-13 11:20:28 51°9.409 2°38.821 9.264088 3.578046 32.967875  
2002-02-13 11:20:33 51°9.41 2°38.828 9.264657 3.578447 32.969725  
2002-02-13 11:20:38 51°9.41 2°38.835 9.301219 3.577745 32.967803  
2002-02-13 11:20:42 51°9.41 2°38.841 9.26238 3.577946 32.968353  
2002-02-13 11:20:48 51°9.41 2°38.849 9.301124 3.578146 32.970405  
2002-02-13 11:20:53 51°9.409 2°38.856 9.301124 3.578146 32.970405  
2002-02-13 11:20:58 51°9.409 2°38.863 9.261811 3.577545 32.964247  
2002-02-13 11:21:03 51°9.408 2°38.87 9.261099 3.578547 32.976015  
2002-02-13 11:21:08 51°9.408 2°38.877 9.262285 3.578046 32.970131  
2002-02-13 11:21:13 51°9.407 2°38.883 9.262712 3.577946 32.969104  
2002-02-13 11:21:18 51°9.407 2°38.89 9.262997 3.577946 32.969104  
2002-02-13 11:21:23 51°9.406 2°38.897 9.262997 3.577946 32.969104  
2002-02-13 11:21:28 51°9.405 2°38.903 9.264799 3.577044 32.962122  
2002-02-13 11:21:33 51°9.404 2°38.91 9.264704 3.577946 32.970608  
2002-02-13 11:21:38 51°9.403 2°38.916 9.26385 3.577445 32.965476  
2002-02-13 11:21:43 51°9.402 2°38.923 9.342214 3.577846 32.969582  
2002-02-13 11:21:47 51°9.402 2°38.928 9.264562 3.577445 32.964724  
2002-02-13 11:21:52 51°9.401 2°38.934 9.264562 3.577445 32.964724  
2002-02-13 11:21:58 51°9.4 2°38.942 9.265843 3.577846 32.969582  
2002-02-13 11:22:02 51°9.399 2°38.947 9.266696 3.577144 32.961645  
2002-02-13 11:22:08 51°9.398 2°38.954 9.308661 3.577144 32.960894  
2002-02-13 11:22:13 51°9.397 2°38.961 9.270823 3.578346 32.973962  
2002-02-13 11:22:18 51°9.396 2°38.967 9.269685 3.577846 32.969582  
2002-02-13 11:22:23 51°9.395 2°38.973 9.269685 3.577846 32.969582  
2002-02-13 11:22:28 51°9.394 2°38.979 9.269637 3.577244 32.961168  
2002-02-13 11:22:33 51°9.393 2°38.985 9.308092 3.577344 32.961443  
2002-02-13 11:22:38 51°9.392 2°38.991 9.269353 3.577645 32.964522  
2002-02-13 11:22:43 51°9.391 2°38.996 9.268783 3.577445 32.960966  
2002-02-13 11:22:48 51°9.39 2°39.002 9.307381 3.577344 32.956183  
2002-02-13 11:22:53 51°9.389 2°39.007 9.307381 3.577344 32.956183  
2002-02-13 11:22:58 51°9.387 2°39.013 9.269542 3.577845 32.962065  
2002-02-13 11:23:02 51°9.386 2°39.018 9.308329 3.577645 32.960013  
2002-02-13 11:23:08 51°9.384 2°39.024 9.308235 3.577745 32.960287  
2002-02-13 11:23:13 51°9.382 2°39.03 9.385455 3.577645 32.960013  
2002-02-13 11:23:17 51°9.381 2°39.034 9.270064 3.577645 32.961516  
2002-02-13 11:23:23 51°9.378 2°39.04 9.270064 3.577645 32.961516  
2002-02-13 11:23:28 51°9.375 2°39.045 9.270112 3.577144 32.956384  
2002-02-13 11:23:32 51°9.373 2°39.048 9.270918 3.577545 32.958986  
2002-02-13 11:23:38 51°9.37 2°39.054 9.272815 3.577745 32.96179  
2002-02-13 11:23:42 51°9.368 2°39.057 9.273953 3.577645 32.960013  
2002-02-13 11:23:47 51°9.365 2°39.061 9.27476 3.577244 32.955908  
2002-02-13 11:23:53 51°9.361 2°39.066 9.27476 3.577244 32.955908  
2002-02-13 11:23:58 51°9.357 2°39.069 9.27476 3.575541 32.938464  
2002-02-13 11:24:03 51°9.353 2°39.072 9.314065 3.576944 32.952829  
2002-02-13 11:24:08 51°9.348 2°39.075 9.315771 3.577445 32.957209  
2002-02-13 11:24:12 51°9.344 2°39.078 9.316624 3.577044 32.952353  
2002-02-13 11:24:17 51°9.339 2°39.08 9.279312 3.577244 32.955157  
2002-02-13 11:24:23 51°9.333 2°39.083 9.279312 3.577244 32.955157  
2002-02-13 11:24:28 51°9.327 2°39.085 9.281446 3.577845 32.959811  
2002-02-13 11:24:33 51°9.322 2°39.086 9.283865 3.576944 32.950576  
2002-02-13 11:24:37 51°9.317 2°39.087 9.28415 3.577445 32.953452  
2002-02-13 11:24:41 51°9.313 2°39.087 9.285999 3.577445 32.954204  
2002-02-13 11:24:47 51°9.306 2°39.087 9.287421 3.577745 32.955028  
2002-02-13 11:24:52 51°9.3 2°39.087 9.287421 3.577745 32.955028  
2002-02-13 11:24:57 51°9.294 2°39.086 9.327525 3.577344 32.950924  
2002-02-13 11:25:03 51°9.287 2°39.084 9.290598 3.576843 32.945794  
2002-02-13 11:25:08 51°9.281 2°39.082 9.292258 3.577945 32.954826  
2002-02-13 11:25:13 51°9.275 2°39.081 9.294107 3.577745 32.951273  
2002-02-13 11:25:18 51°9.27 2°39.078 9.295814 3.577745 32.950522  
2002-02-13 11:25:22 51°9.265 2°39.075 9.295814 3.577745 32.950522  
2002-02-13 11:25:28 51°9.258 2°39.071 9.297378 3.578046 32.951346  
2002-02-13 11:25:33 51°9.253 2°39.068 9.299417 3.577645 32.946492  
2002-02-13 11:25:38 51°9.247 2°39.063 9.301456 3.577044 32.938837  
2002-02-13 11:25:43 51°9.242 2°39.059 9.302451 3.578046 32.946841  
2002-02-13 11:25:48 51°9.237 2°39.054 9.304822 3.578847 32.953545  
2002-02-13 11:25:53 51°9.233 2°39.048 9.304822 3.578847 32.953545  
2002-02-13 11:25:58 51°9.229 2°39.044 9.305438 3.578246 32.947391  
2002-02-13 11:26:03 51°9.226 2°39.039 9.306907 3.579047 32.951842  
2002-02-13 11:26:08 51°9.223 2°39.034 9.385787 3.579148 32.951366  
2002-02-13 11:26:13 51°9.22 2°39.03 9.348325 3.579949 32.958069  
2002-02-13 11:26:18 51°9.217 2°39.025 9.309088 3.579849 32.954791  
2002-02-13 11:26:22 51°9.216 2°39.022 9.309088 3.579849 32.954791  
2002-02-13 11:26:28 51°9.213 2°39.017 9.310463 3.579649 32.951239  
2002-02-13 11:26:32 51°9.212 2°39.013 9.310794 3.580049 32.95459  
2002-02-13 11:26:38 51°9.21 2°39.009 9.349841 3.58015 32.953364  
2002-02-13 11:26:42 51°9.209 2°39.006 9.311411 3.58055 32.955213  
2002-02-13 11:26:48 51°9.207 2°39.002 9.312359 3.580951 32.959314  
2002-02-13 11:26:53 51°9.206 2°38.999 9.312359 3.580951 32.959314  
2002-02-13 11:26:58 51°9.205 2°38.995 9.31307 3.58035 32.953913  
2002-02-13 11:27:02 51°9.204 2°38.993 9.313781 3.58065 32.955488